sensor_id;sensor_type;location;lat;lon;timestamp;temperature;humidity
37446;DHT22;23307;51.136;14.942;2022-10-16T00:00:41;17.30;99.90
37446;DHT22;23307;51.136;14.942;2022-10-16T00:03:07;17.20;99.90
37446;DHT22;23307;51.136;14.942;2022-10-16T00:05:38;17.30;99.90
37446;DHT22;23307;51.136;14.942;2022-10-16T00:08:04;17.30;99.90
37446;DHT22;23307;51.136;14.942;2022-10-16T00:10:29;17.30;99.90
37446;DHT22;23307;51.136;14.942;2022-10-16T00:12:55;17.30;99.90
37446;DHT22;23307;51.136;14.942;2022-10-16T00:15:20;17.30;99.90
37446;DHT22;23307;51.136;14.942;2022-10-16T00:17:46;17.30;99.90
37446;DHT22;23307;51.136;14.942;2022-10-16T00:20:11;17.30;99.90
37446;DHT22;23307;51.136;14.942;2022-10-16T00:22:37;17.40;99.90
37446;DHT22;23307;51.136;14.942;2022-10-16T00:25:03;17.40;99.90
37446;DHT22;23307;51.136;14.942;2022-10-16T00:27:28;17.40;99.90
37446;DHT22;23307;51.136;14.942;2022-10-16T00:29:54;17.40;99.90
37446;DHT22;23307;51.136;14.942;2022-10-16T00:32:20;17.40;99.90
37446;DHT22;23307;51.136;14.942;2022-10-16T00:34:45;17.40;99.90
37446;DHT22;23307;51.136;14.942;2022-10-16T00:37:12;17.40;99.90
37446;DHT22;23307;51.136;14.942;2022-10-16T00:39:38;17.40;99.90
37446;DHT22;23307;51.136;14.942;2022-10-16T00:42:03;17.40;99.90
37446;DHT22;23307;51.136;14.942;2022-10-16T00:44:47;17.30;99.90
37446;DHT22;23307;51.136;14.942;2022-10-16T00:50:00;17.30;99.90
37446;DHT22;23307;51.136;14.942;2022-10-16T00:52:27;17.30;99.90
37446;DHT22;23307;51.136;14.942;2022-10-16T00:54:53;17.30;99.90
37446;DHT22;23307;51.136;14.942;2022-10-16T00:57:19;17.30;99.90
37446;DHT22;23307;51.136;14.942;2022-10-16T00:59:45;17.20;99.90
37446;DHT22;23307;51.136;14.942;2022-10-16T01:02:13;17.20;99.90
37446;DHT22;23307;51.136;14.942;2022-10-16T01:04:46;17.20;99.90
37446;DHT22;23307;51.136;14.942;2022-10-16T01:10:31;17.20;99.90
37446;DHT22;23307;51.136;14.942;2022-10-16T01:15:29;17.10;99.90
37446;DHT22;23307;51.136;14.942;2022-10-16T01:20:54;17.20;99.90
37446;DHT22;23307;51.136;14.942;2022-10-16T01:29:15;17.20;99.90
37446;DHT22;23307;51.136;14.942;2022-10-16T01:31:47;17.20;99.90
37446;DHT22;23307;51.136;14.942;2022-10-16T01:34:18;17.20;99.90
37446;DHT22;23307;51.136;14.942;2022-10-16T01:36:54;17.20;99.90
37446;DHT22;23307;51.136;14.942;2022-10-16T01:39:24;17.10;99.90
37446;DHT22;23307;51.136;14.942;2022-10-16T01:41:56;17.10;99.90
37446;DHT22;23307;51.136;14.942;2022-10-16T01:44:30;17.10;99.90
37446;DHT22;23307;51.136;14.942;2022-10-16T01:46:56;17.00;99.90
37446;DHT22;23307;51.136;14.942;2022-10-16T01:49:26;17.00;99.90
37446;DHT22;23307;51.136;14.942;2022-10-16T01:51:56;17.00;99.90
37446;DHT22;23307;51.136;14.942;2022-10-16T01:54:28;17.00;99.90
37446;DHT22;23307;51.136;14.942;2022-10-16T01:56:57;17.00;99.90
37446;DHT22;23307;51.136;14.942;2022-10-16T01:59:25;17.00;99.90
37446;DHT22;23307;51.136;14.942;2022-10-16T02:01:59;17.00;99.90
37446;DHT22;23307;51.136;14.942;2022-10-16T02:04:36;17.00;99.90
37446;DHT22;23307;51.136;14.942;2022-10-16T02:07:03;17.00;99.90
37446;DHT22;23307;51.136;14.942;2022-10-16T02:09:30;17.10;99.90
37446;DHT22;23307;51.136;14.942;2022-10-16T02:12:00;17.00;99.90
37446;DHT22;23307;51.136;14.942;2022-10-16T02:14:29;17.00;99.90
37446;DHT22;23307;51.136;14.942;2022-10-16T02:16:54;17.00;99.90
37446;DHT22;23307;51.136;14.942;2022-10-16T02:19:21;17.00;99.90
37446;DHT22;23307;51.136;14.942;2022-10-16T02:21:51;17.00;99.90
37446;DHT22;23307;51.136;14.942;2022-10-16T02:27:14;17.00;99.90
37446;DHT22;23307;51.136;14.942;2022-10-16T02:29:41;17.00;99.90
37446;DHT22;23307;51.136;14.942;2022-10-16T02:32:11;17.00;99.90
37446;DHT22;23307;51.136;14.942;2022-10-16T02:34:39;17.00;99.90
37446;DHT22;23307;51.136;14.942;2022-10-16T02:37:06;17.00;99.90
37446;DHT22;23307;51.136;14.942;2022-10-16T02:39:33;16.90;99.90
37446;DHT22;23307;51.136;14.942;2022-10-16T02:41:58;16.90;99.90
37446;DHT22;23307;51.136;14.942;2022-10-16T02:44:24;16.90;99.90
37446;DHT22;23307;51.136;14.942;2022-10-16T02:46:49;16.90;99.90
37446;DHT22;23307;51.136;14.942;2022-10-16T02:49:15;16.90;99.90
37446;DHT22;23307;51.136;14.942;2022-10-16T02:51:41;16.90;99.90
37446;DHT22;23307;51.136;14.942;2022-10-16T02:54:06;16.90;99.90
37446;DHT22;23307;51.136;14.942;2022-10-16T02:56:32;17.00;99.90
37446;DHT22;23307;51.136;14.942;2022-10-16T02:58:58;16.90;99.90
37446;DHT22;23307;51.136;14.942;2022-10-16T03:01:24;17.00;99.90
37446;DHT22;23307;51.136;14.942;2022-10-16T03:03:49;17.00;99.90
37446;DHT22;23307;51.136;14.942;2022-10-16T03:06:15;17.00;99.90
37446;DHT22;23307;51.136;14.942;2022-10-16T03:08:41;16.90;99.90
37446;DHT22;23307;51.136;14.942;2022-10-16T03:11:06;17.00;99.90
37446;DHT22;23307;51.136;14.942;2022-10-16T03:13:32;17.00;99.90
37446;DHT22;23307;51.136;14.942;2022-10-16T03:15:57;17.00;99.90
37446;DHT22;23307;51.136;14.942;2022-10-16T03:18:23;16.90;99.90
37446;DHT22;23307;51.136;14.942;2022-10-16T03:20:48;16.90;99.90
37446;DHT22;23307;51.136;14.942;2022-10-16T03:23:14;16.90;99.90
37446;DHT22;23307;51.136;14.942;2022-10-16T03:25:39;16.90;99.90
37446;DHT22;23307;51.136;14.942;2022-10-16T03:28:05;16.90;99.90
37446;DHT22;23307;51.136;14.942;2022-10-16T03:30:31;16.90;99.90
37446;DHT22;23307;51.136;14.942;2022-10-16T03:32:56;17.00;99.90
37446;DHT22;23307;51.136;14.942;2022-10-16T03:35:23;16.90;99.90
37446;DHT22;23307;51.136;14.942;2022-10-16T03:37:50;17.00;99.90
37446;DHT22;23307;51.136;14.942;2022-10-16T03:40:16;16.90;99.90
37446;DHT22;23307;51.136;14.942;2022-10-16T03:42:43;16.90;99.90
37446;DHT22;23307;51.136;14.942;2022-10-16T03:45:09;16.90;99.90
37446;DHT22;23307;51.136;14.942;2022-10-16T03:47:35;17.00;99.90
37446;DHT22;23307;51.136;14.942;2022-10-16T03:50:01;17.00;99.90
37446;DHT22;23307;51.136;14.942;2022-10-16T03:52:27;17.00;99.90
37446;DHT22;23307;51.136;14.942;2022-10-16T03:54:52;17.00;99.90
37446;DHT22;23307;51.136;14.942;2022-10-16T03:57:18;17.00;99.90
37446;DHT22;23307;51.136;14.942;2022-10-16T03:59:44;17.00;99.90
37446;DHT22;23307;51.136;14.942;2022-10-16T04:02:09;17.00;99.90
37446;DHT22;23307;51.136;14.942;2022-10-16T04:04:35;17.00;99.90
37446;DHT22;23307;51.136;14.942;2022-10-16T04:07:00;17.00;99.90
37446;DHT22;23307;51.136;14.942;2022-10-16T04:09:26;17.00;99.90
37446;DHT22;23307;51.136;14.942;2022-10-16T04:11:52;17.00;99.90
37446;DHT22;23307;51.136;14.942;2022-10-16T04:14:17;17.00;99.90
37446;DHT22;23307;51.136;14.942;2022-10-16T04:16:43;16.90;99.90
37446;DHT22;23307;51.136;14.942;2022-10-16T04:19:09;17.00;99.90
37446;DHT22;23307;51.136;14.942;2022-10-16T04:21:36;17.00;99.90
37446;DHT22;23307;51.136;14.942;2022-10-16T04:24:01;17.00;99.90
37446;DHT22;23307;51.136;14.942;2022-10-16T04:26:27;17.00;99.90
37446;DHT22;23307;51.136;14.942;2022-10-16T04:28:53;17.00;99.90
37446;DHT22;23307;51.136;14.942;2022-10-16T04:31:19;17.00;99.90
37446;DHT22;23307;51.136;14.942;2022-10-16T04:33:44;17.00;99.90
37446;DHT22;23307;51.136;14.942;2022-10-16T04:36:10;17.00;99.90
37446;DHT22;23307;51.136;14.942;2022-10-16T04:38:35;17.00;99.90
37446;DHT22;23307;51.136;14.942;2022-10-16T04:41:03;17.10;99.90
37446;DHT22;23307;51.136;14.942;2022-10-16T04:43:29;17.10;99.90
37446;DHT22;23307;51.136;14.942;2022-10-16T04:45:54;17.10;99.90
37446;DHT22;23307;51.136;14.942;2022-10-16T04:48:20;17.10;99.90
37446;DHT22;23307;51.136;14.942;2022-10-16T04:50:46;17.10;99.90
37446;DHT22;23307;51.136;14.942;2022-10-16T04:53:11;17.10;99.90
37446;DHT22;23307;51.136;14.942;2022-10-16T04:55:37;17.10;99.90
37446;DHT22;23307;51.136;14.942;2022-10-16T04:58:03;17.20;99.90
37446;DHT22;23307;51.136;14.942;2022-10-16T05:00:29;17.10;99.90
37446;DHT22;23307;51.136;14.942;2022-10-16T05:02:54;17.20;99.90
37446;DHT22;23307;51.136;14.942;2022-10-16T05:05:20;17.20;99.90
37446;DHT22;23307;51.136;14.942;2022-10-16T05:07:47;17.10;99.90
37446;DHT22;23307;51.136;14.942;2022-10-16T05:10:12;17.10;99.90
37446;DHT22;23307;51.136;14.942;2022-10-16T05:12:38;17.10;99.90
37446;DHT22;23307;51.136;14.942;2022-10-16T05:15:04;17.10;99.90
37446;DHT22;23307;51.136;14.942;2022-10-16T05:17:30;17.10;99.90
37446;DHT22;23307;51.136;14.942;2022-10-16T05:19:55;17.10;99.90
37446;DHT22;23307;51.136;14.942;2022-10-16T05:22:21;17.00;99.90
37446;DHT22;23307;51.136;14.942;2022-10-16T05:24:47;17.00;99.90
37446;DHT22;23307;51.136;14.942;2022-10-16T05:27:12;17.10;99.90
37446;DHT22;23307;51.136;14.942;2022-10-16T05:29:45;17.00;99.90
37446;DHT22;23307;51.136;14.942;2022-10-16T05:32:11;17.00;99.90
37446;DHT22;23307;51.136;14.942;2022-10-16T05:34:36;17.00;99.90
37446;DHT22;23307;51.136;14.942;2022-10-16T05:37:02;17.00;99.90
37446;DHT22;23307;51.136;14.942;2022-10-16T05:39:27;17.10;99.90
37446;DHT22;23307;51.136;14.942;2022-10-16T05:41:53;17.00;99.90
37446;DHT22;23307;51.136;14.942;2022-10-16T05:44:18;17.00;99.90
37446;DHT22;23307;51.136;14.942;2022-10-16T05:46:46;17.10;99.90
37446;DHT22;23307;51.136;14.942;2022-10-16T05:49:11;17.10;99.90
37446;DHT22;23307;51.136;14.942;2022-10-16T05:51:37;17.10;99.90
37446;DHT22;23307;51.136;14.942;2022-10-16T05:54:02;17.10;99.90
37446;DHT22;23307;51.136;14.942;2022-10-16T05:56:28;17.10;99.90
37446;DHT22;23307;51.136;14.942;2022-10-16T05:58:53;17.10;99.90
37446;DHT22;23307;51.136;14.942;2022-10-16T06:01:19;17.10;99.90
37446;DHT22;23307;51.136;14.942;2022-10-16T06:03:46;17.10;99.90
37446;DHT22;23307;51.136;14.942;2022-10-16T06:06:30;17.10;99.90
37446;DHT22;23307;51.136;14.942;2022-10-16T06:11:27;17.10;99.90
37446;DHT22;23307;51.136;14.942;2022-10-16T06:13:55;17.10;99.90
37446;DHT22;23307;51.136;14.942;2022-10-16T06:16:22;17.20;99.90
37446;DHT22;23307;51.136;14.942;2022-10-16T06:18:47;17.20;99.90
37446;DHT22;23307;51.136;14.942;2022-10-16T06:21:18;17.20;99.90
37446;DHT22;23307;51.136;14.942;2022-10-16T06:23:44;17.20;99.90
37446;DHT22;23307;51.136;14.942;2022-10-16T06:26:13;17.20;99.90
37446;DHT22;23307;51.136;14.942;2022-10-16T06:28:39;17.20;99.90
37446;DHT22;23307;51.136;14.942;2022-10-16T06:31:07;17.30;99.90
37446;DHT22;23307;51.136;14.942;2022-10-16T06:33:33;17.30;99.90
37446;DHT22;23307;51.136;14.942;2022-10-16T06:36:02;17.30;99.90
37446;DHT22;23307;51.136;14.942;2022-10-16T06:38:29;17.30;99.90
37446;DHT22;23307;51.136;14.942;2022-10-16T06:40:54;17.40;99.90
37446;DHT22;23307;51.136;14.942;2022-10-16T06:43:20;17.30;99.90
37446;DHT22;23307;51.136;14.942;2022-10-16T06:45:56;17.40;99.90
37446;DHT22;23307;51.136;14.942;2022-10-16T06:48:23;17.40;99.90
37446;DHT22;23307;51.136;14.942;2022-10-16T06:50:59;17.40;99.90
37446;DHT22;23307;51.136;14.942;2022-10-16T06:53:26;17.40;99.90
37446;DHT22;23307;51.136;14.942;2022-10-16T06:55:52;17.40;99.90
37446;DHT22;23307;51.136;14.942;2022-10-16T06:58:17;17.40;99.90
37446;DHT22;23307;51.136;14.942;2022-10-16T07:00:43;17.40;99.90
37446;DHT22;23307;51.136;14.942;2022-10-16T07:03:08;17.40;99.90
37446;DHT22;23307;51.136;14.942;2022-10-16T07:05:41;17.40;99.90
37446;DHT22;23307;51.136;14.942;2022-10-16T07:08:06;17.50;99.90
37446;DHT22;23307;51.136;14.942;2022-10-16T07:10:33;17.50;99.90
37446;DHT22;23307;51.136;14.942;2022-10-16T07:12:58;17.50;99.90
37446;DHT22;23307;51.136;14.942;2022-10-16T07:15:25;17.60;99.90
37446;DHT22;23307;51.136;14.942;2022-10-16T07:17:51;17.60;99.90
37446;DHT22;23307;51.136;14.942;2022-10-16T07:20:16;17.60;99.90
37446;DHT22;23307;51.136;14.942;2022-10-16T07:22:42;17.60;99.90
37446;DHT22;23307;51.136;14.942;2022-10-16T07:25:08;17.70;99.90
37446;DHT22;23307;51.136;14.942;2022-10-16T07:27:33;17.70;99.90
37446;DHT22;23307;51.136;14.942;2022-10-16T07:29:59;17.70;99.90
37446;DHT22;23307;51.136;14.942;2022-10-16T07:32:25;17.80;99.90
37446;DHT22;23307;51.136;14.942;2022-10-16T07:34:51;17.80;99.90
37446;DHT22;23307;51.136;14.942;2022-10-16T07:37:17;17.80;99.90
37446;DHT22;23307;51.136;14.942;2022-10-16T07:39:43;17.80;99.90
37446;DHT22;23307;51.136;14.942;2022-10-16T07:42:08;17.90;99.90
37446;DHT22;23307;51.136;14.942;2022-10-16T07:44:34;17.90;99.90
37446;DHT22;23307;51.136;14.942;2022-10-16T07:46:59;17.90;99.90
37446;DHT22;23307;51.136;14.942;2022-10-16T07:49:25;18.00;99.90
37446;DHT22;23307;51.136;14.942;2022-10-16T07:51:51;18.10;99.90
37446;DHT22;23307;51.136;14.942;2022-10-16T07:54:16;18.10;99.90
37446;DHT22;23307;51.136;14.942;2022-10-16T07:56:42;18.20;99.90
37446;DHT22;23307;51.136;14.942;2022-10-16T07:59:08;18.30;99.90
37446;DHT22;23307;51.136;14.942;2022-10-16T08:01:33;18.40;99.90
37446;DHT22;23307;51.136;14.942;2022-10-16T08:03:59;18.30;99.90
37446;DHT22;23307;51.136;14.942;2022-10-16T08:06:24;18.30;99.90
37446;DHT22;23307;51.136;14.942;2022-10-16T08:08:50;18.30;99.90
37446;DHT22;23307;51.136;14.942;2022-10-16T08:11:16;18.30;99.90
37446;DHT22;23307;51.136;14.942;2022-10-16T08:13:41;18.30;99.90
37446;DHT22;23307;51.136;14.942;2022-10-16T08:16:07;18.40;99.90
37446;DHT22;23307;51.136;14.942;2022-10-16T08:18:37;18.40;99.90
37446;DHT22;23307;51.136;14.942;2022-10-16T08:21:04;18.50;99.90
37446;DHT22;23307;51.136;14.942;2022-10-16T08:23:30;18.60;99.90
37446;DHT22;23307;51.136;14.942;2022-10-16T08:26:01;18.80;99.90
37446;DHT22;23307;51.136;14.942;2022-10-16T08:28:26;18.80;99.90
37446;DHT22;23307;51.136;14.942;2022-10-16T08:30:52;18.90;99.90
37446;DHT22;23307;51.136;14.942;2022-10-16T08:33:17;18.90;99.90
37446;DHT22;23307;51.136;14.942;2022-10-16T08:35:53;18.90;99.90
37446;DHT22;23307;51.136;14.942;2022-10-16T08:38:19;18.90;99.90
37446;DHT22;23307;51.136;14.942;2022-10-16T08:40:45;18.90;99.90
37446;DHT22;23307;51.136;14.942;2022-10-16T08:48:36;18.90;99.90
37446;DHT22;23307;51.136;14.942;2022-10-16T08:51:05;18.90;99.90
37446;DHT22;23307;51.136;14.942;2022-10-16T08:53:45;19.00;99.90
37446;DHT22;23307;51.136;14.942;2022-10-16T08:56:12;18.90;99.90
37446;DHT22;23307;51.136;14.942;2022-10-16T08:58:37;19.00;99.90
37446;DHT22;23307;51.136;14.942;2022-10-16T09:01:09;18.90;99.90
37446;DHT22;23307;51.136;14.942;2022-10-16T09:06:43;19.00;99.90
37446;DHT22;23307;51.136;14.942;2022-10-16T09:17:33;19.10;99.90
37446;DHT22;23307;51.136;14.942;2022-10-16T09:22:39;19.10;99.90
37446;DHT22;23307;51.136;14.942;2022-10-16T09:25:15;19.20;99.90
37446;DHT22;23307;51.136;14.942;2022-10-16T09:27:42;19.10;99.90
37446;DHT22;23307;51.136;14.942;2022-10-16T09:30:18;19.20;99.90
37446;DHT22;23307;51.136;14.942;2022-10-16T09:32:45;19.20;99.90
37446;DHT22;23307;51.136;14.942;2022-10-16T09:35:18;19.20;99.90
37446;DHT22;23307;51.136;14.942;2022-10-16T09:37:47;19.20;99.90
37446;DHT22;23307;51.136;14.942;2022-10-16T09:40:24;19.30;99.90
37446;DHT22;23307;51.136;14.942;2022-10-16T09:42:54;19.30;99.90
37446;DHT22;23307;51.136;14.942;2022-10-16T09:45:23;19.30;99.90
37446;DHT22;23307;51.136;14.942;2022-10-16T09:47:49;19.30;99.90
37446;DHT22;23307;51.136;14.942;2022-10-16T09:50:26;19.40;99.90
37446;DHT22;23307;51.136;14.942;2022-10-16T09:53:12;19.40;99.90
37446;DHT22;23307;51.136;14.942;2022-10-16T09:55:51;19.60;99.90
37446;DHT22;23307;51.136;14.942;2022-10-16T09:58:17;19.70;99.90
37446;DHT22;23307;51.136;14.942;2022-10-16T10:00:50;19.80;99.90
37446;DHT22;23307;51.136;14.942;2022-10-16T10:03:34;19.90;99.90
37446;DHT22;23307;51.136;14.942;2022-10-16T10:06:15;19.90;99.90
37446;DHT22;23307;51.136;14.942;2022-10-16T10:09:37;20.00;99.90
37446;DHT22;23307;51.136;14.942;2022-10-16T10:11:38;20.00;99.90
37446;DHT22;23307;51.136;14.942;2022-10-16T10:14:13;20.00;99.90
37446;DHT22;23307;51.136;14.942;2022-10-16T10:16:40;20.10;99.90
37446;DHT22;23307;51.136;14.942;2022-10-16T10:19:17;20.20;99.90
37446;DHT22;23307;51.136;14.942;2022-10-16T10:21:43;20.30;99.90
37446;DHT22;23307;51.136;14.942;2022-10-16T10:24:12;20.50;99.90
37446;DHT22;23307;51.136;14.942;2022-10-16T10:26:40;20.70;99.90
37446;DHT22;23307;51.136;14.942;2022-10-16T10:37:40;21.20;99.90
37446;DHT22;23307;51.136;14.942;2022-10-16T10:40:29;21.30;99.90
37446;DHT22;23307;51.136;14.942;2022-10-16T10:45:54;21.20;99.90
37446;DHT22;23307;51.136;14.942;2022-10-16T10:54:49;21.30;99.90
37446;DHT22;23307;51.136;14.942;2022-10-16T10:57:29;21.30;99.90
37446;DHT22;23307;51.136;14.942;2022-10-16T11:00:04;21.20;99.90
37446;DHT22;23307;51.136;14.942;2022-10-16T11:02:50;21.20;99.90
37446;DHT22;23307;51.136;14.942;2022-10-16T11:08:17;21.20;99.90
37446;DHT22;23307;51.136;14.942;2022-10-16T11:10:52;21.20;99.90
37446;DHT22;23307;51.136;14.942;2022-10-16T11:16:23;21.20;99.90
37446;DHT22;23307;51.136;14.942;2022-10-16T11:19:14;21.30;99.90
37446;DHT22;23307;51.136;14.942;2022-10-16T11:21:51;21.50;99.90
37446;DHT22;23307;51.136;14.942;2022-10-16T11:24:35;21.80;99.90
37446;DHT22;23307;51.136;14.942;2022-10-16T11:27:04;22.00;99.90
37446;DHT22;23307;51.136;14.942;2022-10-16T11:29:35;22.00;99.90
37446;DHT22;23307;51.136;14.942;2022-10-16T11:32:24;22.20;99.90
37446;DHT22;23307;51.136;14.942;2022-10-16T11:34:57;22.40;99.90
37446;DHT22;23307;51.136;14.942;2022-10-16T11:37:32;22.60;99.90
37446;DHT22;23307;51.136;14.942;2022-10-16T11:40:09;22.80;99.90
37446;DHT22;23307;51.136;14.942;2022-10-16T11:42:51;23.10;99.90
37446;DHT22;23307;51.136;14.942;2022-10-16T11:45:34;23.00;99.90
37446;DHT22;23307;51.136;14.942;2022-10-16T11:48:33;22.80;99.90
37446;DHT22;23307;51.136;14.942;2022-10-16T11:57:22;22.50;99.90
37446;DHT22;23307;51.136;14.942;2022-10-16T12:00:05;22.60;99.90
37446;DHT22;23307;51.136;14.942;2022-10-16T12:08:14;23.00;99.90
37446;DHT22;23307;51.136;14.942;2022-10-16T12:10:42;23.10;99.90
37446;DHT22;23307;51.136;14.942;2022-10-16T12:13:28;23.20;99.90
37446;DHT22;23307;51.136;14.942;2022-10-16T12:19:30;23.30;99.90
37446;DHT22;23307;51.136;14.942;2022-10-16T12:22:00;23.40;99.90
37446;DHT22;23307;51.136;14.942;2022-10-16T12:24:39;23.40;99.90
37446;DHT22;23307;51.136;14.942;2022-10-16T12:27:42;23.40;99.90
37446;DHT22;23307;51.136;14.942;2022-10-16T12:30:54;23.30;99.90
37446;DHT22;23307;51.136;14.942;2022-10-16T12:36:38;23.80;99.90
37446;DHT22;23307;51.136;14.942;2022-10-16T12:39:23;24.20;99.90
37446;DHT22;23307;51.136;14.942;2022-10-16T12:42:01;24.30;99.90
37446;DHT22;23307;51.136;14.942;2022-10-16T12:44:36;24.40;99.90
37446;DHT22;23307;51.136;14.942;2022-10-16T12:50:42;24.40;99.90
37446;DHT22;23307;51.136;14.942;2022-10-16T12:53:25;24.60;99.90
37446;DHT22;23307;51.136;14.942;2022-10-16T12:56:25;24.80;99.90
37446;DHT22;23307;51.136;14.942;2022-10-16T13:07:59;25.20;99.90
37446;DHT22;23307;51.136;14.942;2022-10-16T13:10:35;25.20;99.90
37446;DHT22;23307;51.136;14.942;2022-10-16T13:13:09;25.30;99.90
37446;DHT22;23307;51.136;14.942;2022-10-16T13:18:16;25.50;99.90
37446;DHT22;23307;51.136;14.942;2022-10-16T13:26:26;25.50;99.90
37446;DHT22;23307;51.136;14.942;2022-10-16T13:28:59;25.20;99.90
37446;DHT22;23307;51.136;14.942;2022-10-16T13:31:25;24.90;99.90
37446;DHT22;23307;51.136;14.942;2022-10-16T13:33:53;24.80;99.90
37446;DHT22;23307;51.136;14.942;2022-10-16T13:36:28;24.90;99.90
37446;DHT22;23307;51.136;14.942;2022-10-16T13:39:14;25.20;99.90
37446;DHT22;23307;51.136;14.942;2022-10-16T13:41:42;25.60;99.90
37446;DHT22;23307;51.136;14.942;2022-10-16T13:44:14;25.80;99.90
37446;DHT22;23307;51.136;14.942;2022-10-16T13:46:40;25.40;99.90
37446;DHT22;23307;51.136;14.942;2022-10-16T13:49:16;25.00;99.90
37446;DHT22;23307;51.136;14.942;2022-10-16T13:51:54;25.00;99.90
37446;DHT22;23307;51.136;14.942;2022-10-16T13:54:20;25.30;99.90
37446;DHT22;23307;51.136;14.942;2022-10-16T13:56:46;25.50;99.90
37446;DHT22;23307;51.136;14.942;2022-10-16T13:59:25;25.30;99.90
37446;DHT22;23307;51.136;14.942;2022-10-16T14:01:54;25.30;99.90
37446;DHT22;23307;51.136;14.942;2022-10-16T14:04:21;25.60;99.90
37446;DHT22;23307;51.136;14.942;2022-10-16T14:06:50;25.80;99.90
37446;DHT22;23307;51.136;14.942;2022-10-16T14:09:34;25.90;99.90
37446;DHT22;23307;51.136;14.942;2022-10-16T14:12:07;25.90;99.90
37446;DHT22;23307;51.136;14.942;2022-10-16T14:14:42;25.60;99.90
37446;DHT22;23307;51.136;14.942;2022-10-16T14:17:21;25.20;99.90
37446;DHT22;23307;51.136;14.942;2022-10-16T14:19:49;24.80;99.90
37446;DHT22;23307;51.136;14.942;2022-10-16T14:24:47;24.40;99.90
37446;DHT22;23307;51.136;14.942;2022-10-16T14:27:34;24.20;99.90
37446;DHT22;23307;51.136;14.942;2022-10-16T14:32:41;23.90;99.90
37446;DHT22;23307;51.136;14.942;2022-10-16T14:37:59;23.80;99.90
37446;DHT22;23307;51.136;14.942;2022-10-16T14:40:29;23.70;99.90
37446;DHT22;23307;51.136;14.942;2022-10-16T14:42:55;23.60;99.90
37446;DHT22;23307;51.136;14.942;2022-10-16T14:45:24;23.60;99.90
37446;DHT22;23307;51.136;14.942;2022-10-16T14:47:54;23.50;99.90
37446;DHT22;23307;51.136;14.942;2022-10-16T14:50:21;23.50;99.90
37446;DHT22;23307;51.136;14.942;2022-10-16T14:52:46;23.40;99.90
37446;DHT22;23307;51.136;14.942;2022-10-16T14:55:12;23.40;99.90
37446;DHT22;23307;51.136;14.942;2022-10-16T14:57:38;23.30;99.90
37446;DHT22;23307;51.136;14.942;2022-10-16T15:00:22;23.30;99.90
37446;DHT22;23307;51.136;14.942;2022-10-16T15:02:49;23.20;99.90
37446;DHT22;23307;51.136;14.942;2022-10-16T15:05:20;23.20;99.90
37446;DHT22;23307;51.136;14.942;2022-10-16T15:07:47;23.10;99.90
37446;DHT22;23307;51.136;14.942;2022-10-16T15:10:13;23.00;99.90
37446;DHT22;23307;51.136;14.942;2022-10-16T15:12:39;22.90;99.90
37446;DHT22;23307;51.136;14.942;2022-10-16T15:17:58;22.80;99.90
37446;DHT22;23307;51.136;14.942;2022-10-16T15:20:31;22.80;99.90
37446;DHT22;23307;51.136;14.942;2022-10-16T15:22:59;22.70;99.90
37446;DHT22;23307;51.136;14.942;2022-10-16T15:28:12;22.60;99.90
37446;DHT22;23307;51.136;14.942;2022-10-16T15:30:38;22.50;99.90
37446;DHT22;23307;51.136;14.942;2022-10-16T15:33:08;22.50;99.90
37446;DHT22;23307;51.136;14.942;2022-10-16T15:35:36;22.40;99.90
37446;DHT22;23307;51.136;14.942;2022-10-16T15:38:01;22.40;99.90
37446;DHT22;23307;51.136;14.942;2022-10-16T15:40:27;22.30;99.90
37446;DHT22;23307;51.136;14.942;2022-10-16T15:42:53;22.20;99.90
37446;DHT22;23307;51.136;14.942;2022-10-16T15:45:18;22.30;99.90
37446;DHT22;23307;51.136;14.942;2022-10-16T15:47:45;22.20;99.90
37446;DHT22;23307;51.136;14.942;2022-10-16T15:50:12;22.10;99.90
37446;DHT22;23307;51.136;14.942;2022-10-16T15:52:39;22.10;99.90
37446;DHT22;23307;51.136;14.942;2022-10-16T15:55:11;22.10;99.90
37446;DHT22;23307;51.136;14.942;2022-10-16T15:57:37;22.00;99.90
37446;DHT22;23307;51.136;14.942;2022-10-16T16:00:07;21.90;99.90
37446;DHT22;23307;51.136;14.942;2022-10-16T16:02:33;21.90;99.90
37446;DHT22;23307;51.136;14.942;2022-10-16T16:04:59;21.80;99.90
37446;DHT22;23307;51.136;14.942;2022-10-16T16:07:24;21.80;99.90
37446;DHT22;23307;51.136;14.942;2022-10-16T16:09:50;21.70;99.90
37446;DHT22;23307;51.136;14.942;2022-10-16T16:12:15;21.60;99.90
37446;DHT22;23307;51.136;14.942;2022-10-16T16:14:41;21.60;99.90
37446;DHT22;23307;51.136;14.942;2022-10-16T16:17:07;21.60;99.90
37446;DHT22;23307;51.136;14.942;2022-10-16T16:19:33;21.60;99.90
37446;DHT22;23307;51.136;14.942;2022-10-16T16:21:59;21.70;99.90
37446;DHT22;23307;51.136;14.942;2022-10-16T16:24:24;21.60;99.90
37446;DHT22;23307;51.136;14.942;2022-10-16T16:26:50;21.60;99.90
37446;DHT22;23307;51.136;14.942;2022-10-16T16:29:15;21.60;99.90
37446;DHT22;23307;51.136;14.942;2022-10-16T16:31:42;21.60;99.90
37446;DHT22;23307;51.136;14.942;2022-10-16T16:34:08;21.60;99.90
37446;DHT22;23307;51.136;14.942;2022-10-16T16:36:34;21.50;99.90
37446;DHT22;23307;51.136;14.942;2022-10-16T16:39:00;21.50;99.90
37446;DHT22;23307;51.136;14.942;2022-10-16T16:41:28;21.50;99.90
37446;DHT22;23307;51.136;14.942;2022-10-16T16:43:55;21.50;99.90
37446;DHT22;23307;51.136;14.942;2022-10-16T16:46:26;21.50;99.90
37446;DHT22;23307;51.136;14.942;2022-10-16T16:48:51;21.40;99.90
37446;DHT22;23307;51.136;14.942;2022-10-16T16:51:20;21.40;99.90
37446;DHT22;23307;51.136;14.942;2022-10-16T16:53:48;21.40;99.90
37446;DHT22;23307;51.136;14.942;2022-10-16T16:56:14;21.40;99.90
37446;DHT22;23307;51.136;14.942;2022-10-16T16:58:40;21.30;99.90
37446;DHT22;23307;51.136;14.942;2022-10-16T17:01:08;21.20;99.90
37446;DHT22;23307;51.136;14.942;2022-10-16T17:03:34;21.20;99.90
37446;DHT22;23307;51.136;14.942;2022-10-16T17:06:03;21.20;99.90
37446;DHT22;23307;51.136;14.942;2022-10-16T17:08:29;21.10;99.90
37446;DHT22;23307;51.136;14.942;2022-10-16T17:10:55;21.10;99.90
37446;DHT22;23307;51.136;14.942;2022-10-16T17:13:30;21.10;99.90
37446;DHT22;23307;51.136;14.942;2022-10-16T17:15:56;21.10;99.90
37446;DHT22;23307;51.136;14.942;2022-10-16T17:18:23;21.10;99.90
37446;DHT22;23307;51.136;14.942;2022-10-16T17:20:50;21.00;99.90
37446;DHT22;23307;51.136;14.942;2022-10-16T17:23:17;20.90;99.90
37446;DHT22;23307;51.136;14.942;2022-10-16T17:25:43;20.80;99.90